sensor_id;sensor_type;location;lat;lon;timestamp;pressure;altitude;pressure_sealevel;temperature;humidity
32492;BME280;20605;49.742;18.802;2023-04-01T00:00:22;96132.16;;;8.54;100.00
32492;BME280;20605;49.742;18.802;2023-04-01T00:02:48;96136.10;;;8.51;100.00
32492;BME280;20605;49.742;18.802;2023-04-01T00:05:14;96137.41;;;8.53;100.00
32492;BME280;20605;49.742;18.802;2023-04-01T00:07:42;96134.61;;;8.53;100.00
32492;BME280;20605;49.742;18.802;2023-04-01T00:10:10;96133.31;;;8.51;100.00
32492;BME280;20605;49.742;18.802;2023-04-01T00:12:37;96129.17;;;8.51;100.00
32492;BME280;20605;49.742;18.802;2023-04-01T00:15:06;96130.88;;;8.52;100.00
32492;BME280;20605;49.742;18.802;2023-04-01T00:17:33;96129.01;;;8.55;100.00
32492;BME280;20605;49.742;18.802;2023-04-01T00:19:59;96129.27;;;8.56;100.00
32492;BME280;20605;49.742;18.802;2023-04-01T00:22:26;96131.13;;;8.57;100.00
32492;BME280;20605;49.742;18.802;2023-04-01T00:24:53;96133.98;;;8.59;100.00
32492;BME280;20605;49.742;18.802;2023-04-01T00:27:20;96134.70;;;8.62;100.00
32492;BME280;20605;49.742;18.802;2023-04-01T00:29:46;96128.83;;;8.65;100.00
32492;BME280;20605;49.742;18.802;2023-04-01T00:35:14;96128.61;;;8.69;100.00
32492;BME280;20605;49.742;18.802;2023-04-01T00:37:40;96127.86;;;8.70;100.00
32492;BME280;20605;49.742;18.802;2023-04-01T00:40:10;96125.91;;;8.71;100.00
32492;BME280;20605;49.742;18.802;2023-04-01T00:42:46;96127.60;;;8.72;100.00
32492;BME280;20605;49.742;18.802;2023-04-01T00:47:54;96121.05;;;8.75;100.00
32492;BME280;20605;49.742;18.802;2023-04-01T00:50:22;96117.37;;;8.76;100.00
32492;BME280;20605;49.742;18.802;2023-04-01T00:52:50;96121.42;;;8.77;100.00
32492;BME280;20605;49.742;18.802;2023-04-01T00:55:19;96120.61;;;8.80;100.00
32492;BME280;20605;49.742;18.802;2023-04-01T00:57:49;96118.92;;;8.82;100.00
32492;BME280;20605;49.742;18.802;2023-04-01T01:00:18;96128.24;;;8.83;100.00
32492;BME280;20605;49.742;18.802;2023-04-01T01:02:45;96132.71;;;8.83;100.00
32492;BME280;20605;49.742;18.802;2023-04-01T01:05:14;96129.09;;;8.83;100.00
32492;BME280;20605;49.742;18.802;2023-04-01T01:07:51;96120.67;;;8.85;100.00
32492;BME280;20605;49.742;18.802;2023-04-01T01:10:24;96122.82;;;8.88;100.00
32492;BME280;20605;49.742;18.802;2023-04-01T01:13:17;96120.05;;;8.91;100.00
32492;BME280;20605;49.742;18.802;2023-04-01T01:15:58;96123.73;;;8.93;100.00
32492;BME280;20605;49.742;18.802;2023-04-01T01:18:53;96118.26;;;8.96;100.00
32492;BME280;20605;49.742;18.802;2023-04-01T01:37:33;96108.27;;;8.91;100.00
32492;BME280;20605;49.742;18.802;2023-04-01T01:40:04;96109.27;;;8.92;100.00
32492;BME280;20605;49.742;18.802;2023-04-01T01:42:36;96104.62;;;8.91;100.00
32492;BME280;20605;49.742;18.802;2023-04-01T01:45:04;96105.22;;;8.90;100.00
32492;BME280;20605;49.742;18.802;2023-04-01T01:47:33;96107.64;;;8.90;100.00
32492;BME280;20605;49.742;18.802;2023-04-01T01:50:02;96115.09;;;8.87;100.00
32492;BME280;20605;49.742;18.802;2023-04-01T01:52:30;96115.23;;;8.84;100.00
32492;BME280;20605;49.742;18.802;2023-04-01T01:54:57;96119.25;;;8.83;100.00
32492;BME280;20605;49.742;18.802;2023-04-01T01:57:32;96114.89;;;8.83;100.00
32492;BME280;20605;49.742;18.802;2023-04-01T02:00:09;96119.29;;;8.86;100.00
32492;BME280;20605;49.742;18.802;2023-04-01T02:02:42;96120.89;;;8.88;100.00
32492;BME280;20605;49.742;18.802;2023-04-01T02:05:11;96125.29;;;8.90;100.00
32492;BME280;20605;49.742;18.802;2023-04-01T02:07:43;96121.77;;;8.91;100.00
32492;BME280;20605;49.742;18.802;2023-04-01T02:10:13;96125.77;;;8.91;100.00
32492;BME280;20605;49.742;18.802;2023-04-01T02:12:41;96124.36;;;8.88;100.00
32492;BME280;20605;49.742;18.802;2023-04-01T02:15:12;96127.77;;;8.86;100.00
32492;BME280;20605;49.742;18.802;2023-04-01T02:17:45;96126.93;;;8.85;100.00
32492;BME280;20605;49.742;18.802;2023-04-01T02:20:19;96125.41;;;8.84;100.00
32492;BME280;20605;49.742;18.802;2023-04-01T02:22:50;96124.54;;;8.85;100.00
32492;BME280;20605;49.742;18.802;2023-04-01T02:25:23;96128.70;;;8.84;100.00
32492;BME280;20605;49.742;18.802;2023-04-01T02:27:51;96126.52;;;8.83;100.00
32492;BME280;20605;49.742;18.802;2023-04-01T02:30:19;96127.13;;;8.81;100.00
32492;BME280;20605;49.742;18.802;2023-04-01T02:32:46;96128.83;;;8.82;100.00
32492;BME280;20605;49.742;18.802;2023-04-01T02:35:15;96132.80;;;8.82;100.00
32492;BME280;20605;49.742;18.802;2023-04-01T02:37:48;96124.21;;;8.84;100.00
32492;BME280;20605;49.742;18.802;2023-04-01T02:40:16;96127.71;;;8.87;100.00
32492;BME280;20605;49.742;18.802;2023-04-01T02:42:43;96128.95;;;8.87;100.00
32492;BME280;20605;49.742;18.802;2023-04-01T02:45:10;96130.00;;;8.86;100.00
32492;BME280;20605;49.742;18.802;2023-04-01T02:47:36;96129.58;;;8.87;100.00
32492;BME280;20605;49.742;18.802;2023-04-01T02:50:02;96131.89;;;8.89;100.00
32492;BME280;20605;49.742;18.802;2023-04-01T02:52:29;96132.84;;;8.91;100.00
32492;BME280;20605;49.742;18.802;2023-04-01T02:54:56;96130.09;;;8.91;100.00
32492;BME280;20605;49.742;18.802;2023-04-01T02:57:23;96131.76;;;8.92;100.00
32492;BME280;20605;49.742;18.802;2023-04-01T02:59:49;96131.91;;;8.92;100.00
32492;BME280;20605;49.742;18.802;2023-04-01T03:02:15;96132.16;;;8.95;100.00
32492;BME280;20605;49.742;18.802;2023-04-01T03:04:42;96134.02;;;8.95;100.00
32492;BME280;20605;49.742;18.802;2023-04-01T03:07:08;96134.62;;;8.97;100.00
32492;BME280;20605;49.742;18.802;2023-04-01T03:09:36;96137.83;;;8.95;100.00
32492;BME280;20605;49.742;18.802;2023-04-01T03:12:03;96143.41;;;8.94;100.00
32492;BME280;20605;49.742;18.802;2023-04-01T03:14:31;96147.23;;;8.94;100.00
32492;BME280;20605;49.742;18.802;2023-04-01T03:16:57;96142.38;;;8.94;100.00
32492;BME280;20605;49.742;18.802;2023-04-01T03:19:23;96145.47;;;8.95;100.00
32492;BME280;20605;49.742;18.802;2023-04-01T03:21:49;96147.91;;;8.94;100.00
32492;BME280;20605;49.742;18.802;2023-04-01T03:24:15;96147.37;;;8.95;100.00
32492;BME280;20605;49.742;18.802;2023-04-01T03:26:41;96147.10;;;8.97;100.00
32492;BME280;20605;49.742;18.802;2023-04-01T03:29:07;96142.25;;;8.97;100.00
32492;BME280;20605;49.742;18.802;2023-04-01T03:31:33;96138.71;;;8.95;100.00
32492;BME280;20605;49.742;18.802;2023-04-01T03:33:59;96148.10;;;8.94;100.00
32492;BME280;20605;49.742;18.802;2023-04-01T03:36:26;96144.34;;;8.93;100.00
32492;BME280;20605;49.742;18.802;2023-04-01T03:38:52;96146.07;;;8.93;100.00
32492;BME280;20605;49.742;18.802;2023-04-01T03:41:21;96144.86;;;8.93;100.00
32492;BME280;20605;49.742;18.802;2023-04-01T03:43:47;96141.66;;;8.95;100.00
32492;BME280;20605;49.742;18.802;2023-04-01T03:46:18;96139.13;;;8.97;100.00
32492;BME280;20605;49.742;18.802;2023-04-01T03:48:45;96140.77;;;8.99;100.00
32492;BME280;20605;49.742;18.802;2023-04-01T03:51:11;96139.30;;;8.97;100.00
32492;BME280;20605;49.742;18.802;2023-04-01T03:53:37;96138.95;;;8.94;100.00
32492;BME280;20605;49.742;18.802;2023-04-01T03:56:07;96139.35;;;8.93;100.00
32492;BME280;20605;49.742;18.802;2023-04-01T03:58:35;96139.63;;;8.91;100.00
32492;BME280;20605;49.742;18.802;2023-04-01T04:01:01;96142.02;;;8.88;100.00
32492;BME280;20605;49.742;18.802;2023-04-01T04:03:28;96141.64;;;8.85;100.00
32492;BME280;20605;49.742;18.802;2023-04-01T04:05:54;96141.70;;;8.84;100.00
32492;BME280;20605;49.742;18.802;2023-04-01T04:08:21;96143.10;;;8.83;100.00
32492;BME280;20605;49.742;18.802;2023-04-01T04:10:47;96135.08;;;8.81;100.00
32492;BME280;20605;49.742;18.802;2023-04-01T04:13:13;96138.95;;;8.80;100.00
32492;BME280;20605;49.742;18.802;2023-04-01T04:15:45;96144.93;;;8.78;100.00
32492;BME280;20605;49.742;18.802;2023-04-01T04:18:11;96142.36;;;8.74;100.00
32492;BME280;20605;49.742;18.802;2023-04-01T04:20:37;96144.61;;;8.71;100.00
32492;BME280;20605;49.742;18.802;2023-04-01T04:23:08;96146.30;;;8.68;100.00
32492;BME280;20605;49.742;18.802;2023-04-01T04:25:34;96143.30;;;8.66;100.00
32492;BME280;20605;49.742;18.802;2023-04-01T04:28:00;96145.52;;;8.63;100.00
32492;BME280;20605;49.742;18.802;2023-04-01T04:30:26;96146.36;;;8.61;100.00
32492;BME280;20605;49.742;18.802;2023-04-01T04:32:51;96146.25;;;8.59;100.00
32492;BME280;20605;49.742;18.802;2023-04-01T04:35:17;96144.91;;;8.58;100.00
32492;BME280;20605;49.742;18.802;2023-04-01T04:37:43;96148.77;;;8.57;100.00
32492;BME280;20605;49.742;18.802;2023-04-01T04:40:09;96149.77;;;8.58;100.00
32492;BME280;20605;49.742;18.802;2023-04-01T04:42:35;96150.36;;;8.60;100.00
32492;BME280;20605;49.742;18.802;2023-04-01T04:45:06;96148.40;;;8.64;100.00
32492;BME280;20605;49.742;18.802;2023-04-01T04:47:32;96146.51;;;8.67;100.00
32492;BME280;20605;49.742;18.802;2023-04-01T04:49:58;96145.67;;;8.70;100.00
32492;BME280;20605;49.742;18.802;2023-04-01T04:52:26;96146.83;;;8.72;100.00
32492;BME280;20605;49.742;18.802;2023-04-01T04:54:52;96145.52;;;8.73;100.00
32492;BME280;20605;49.742;18.802;2023-04-01T04:57:18;96143.73;;;8.75;100.00
32492;BME280;20605;49.742;18.802;2023-04-01T04:59:49;96141.02;;;8.77;100.00
32492;BME280;20605;49.742;18.802;2023-04-01T05:02:23;96142.94;;;8.80;100.00
32492;BME280;20605;49.742;18.802;2023-04-01T05:04:50;96141.50;;;8.84;100.00
32492;BME280;20605;49.742;18.802;2023-04-01T05:07:16;96143.56;;;8.88;100.00
32492;BME280;20605;49.742;18.802;2023-04-01T05:09:42;96143.67;;;8.93;100.00
32492;BME280;20605;49.742;18.802;2023-04-01T05:12:08;96141.54;;;8.97;100.00
32492;BME280;20605;49.742;18.802;2023-04-01T05:14:55;96152.70;;;8.99;100.00
32492;BME280;20605;49.742;18.802;2023-04-01T05:17:20;96146.48;;;8.98;100.00
32492;BME280;20605;49.742;18.802;2023-04-01T05:19:47;96152.27;;;8.97;100.00
32492;BME280;20605;49.742;18.802;2023-04-01T05:22:14;96150.35;;;8.97;100.00
32492;BME280;20605;49.742;18.802;2023-04-01T05:24:43;96150.80;;;8.99;100.00
32492;BME280;20605;49.742;18.802;2023-04-01T05:27:10;96146.95;;;9.00;100.00
32492;BME280;20605;49.742;18.802;2023-04-01T05:29:39;96149.90;;;8.99;100.00
32492;BME280;20605;49.742;18.802;2023-04-01T05:32:07;96154.45;;;8.99;100.00
32492;BME280;20605;49.742;18.802;2023-04-01T05:34:41;96153.91;;;8.99;100.00
32492;BME280;20605;49.742;18.802;2023-04-01T05:37:08;96161.82;;;9.00;100.00
32492;BME280;20605;49.742;18.802;2023-04-01T05:39:38;96161.67;;;9.03;100.00
32492;BME280;20605;49.742;18.802;2023-04-01T05:42:08;96165.73;;;9.05;100.00
32492;BME280;20605;49.742;18.802;2023-04-01T05:44:39;96167.46;;;9.11;100.00
32492;BME280;20605;49.742;18.802;2023-04-01T05:47:05;96162.61;;;9.17;100.00
32492;BME280;20605;49.742;18.802;2023-04-01T05:49:33;96158.98;;;9.24;100.00
32492;BME280;20605;49.742;18.802;2023-04-01T05:52:02;96159.38;;;9.30;100.00
32492;BME280;20605;49.742;18.802;2023-04-01T05:54:29;96163.65;;;9.37;100.00
32492;BME280;20605;49.742;18.802;2023-04-01T05:56:56;96165.78;;;9.45;100.00
32492;BME280;20605;49.742;18.802;2023-04-01T05:59:22;96165.58;;;9.56;100.00
32492;BME280;20605;49.742;18.802;2023-04-01T06:01:49;96165.08;;;9.62;100.00
32492;BME280;20605;49.742;18.802;2023-04-01T06:04:17;96166.28;;;9.68;100.00
32492;BME280;20605;49.742;18.802;2023-04-01T06:06:44;96166.62;;;9.72;100.00
32492;BME280;20605;49.742;18.802;2023-04-01T06:09:19;96168.42;;;9.73;100.00
32492;BME280;20605;49.742;18.802;2023-04-01T06:14:55;96174.48;;;9.71;100.00
32492;BME280;20605;49.742;18.802;2023-04-01T06:17:59;96175.80;;;9.68;100.00
32492;BME280;20605;49.742;18.802;2023-04-01T06:21:06;96175.70;;;9.71;100.00
32492;BME280;20605;49.742;18.802;2023-04-01T06:27:13;96173.41;;;9.87;100.00
32492;BME280;20605;49.742;18.802;2023-04-01T06:30:02;96174.73;;;9.98;100.00
32492;BME280;20605;49.742;18.802;2023-04-01T06:33:10;96174.09;;;10.03;100.00
32492;BME280;20605;49.742;18.802;2023-04-01T06:51:00;96178.30;;;10.27;100.00
32492;BME280;20605;49.742;18.802;2023-04-01T06:54:09;96179.34;;;10.34;100.00
32492;BME280;20605;49.742;18.802;2023-04-01T06:57:14;96179.27;;;10.47;100.00
32492;BME280;20605;49.742;18.802;2023-04-01T06:59:45;96180.66;;;10.56;100.00
32492;BME280;20605;49.742;18.802;2023-04-01T07:02:38;96185.69;;;10.65;100.00
32492;BME280;20605;49.742;18.802;2023-04-01T07:05:08;96184.86;;;10.70;100.00
32492;BME280;20605;49.742;18.802;2023-04-01T07:07:50;96189.20;;;10.70;100.00
32492;BME280;20605;49.742;18.802;2023-04-01T07:10:40;96190.52;;;10.74;100.00
32492;BME280;20605;49.742;18.802;2023-04-01T07:13:34;96191.81;;;10.79;100.00
32492;BME280;20605;49.742;18.802;2023-04-01T07:16:25;96191.61;;;10.79;100.00
32492;BME280;20605;49.742;18.802;2023-04-01T07:19:08;96184.02;;;10.78;100.00
32492;BME280;20605;49.742;18.802;2023-04-01T07:22:29;96192.34;;;10.76;100.00
32492;BME280;20605;49.742;18.802;2023-04-01T07:25:16;96192.70;;;10.75;100.00
32492;BME280;20605;49.742;18.802;2023-04-01T07:27:46;96195.64;;;10.78;100.00
32492;BME280;20605;49.742;18.802;2023-04-01T07:30:17;96192.95;;;10.80;100.00
32492;BME280;20605;49.742;18.802;2023-04-01T07:32:51;96195.46;;;10.82;100.00
32492;BME280;20605;49.742;18.802;2023-04-01T07:35:44;96190.97;;;10.87;100.00
32492;BME280;20605;49.742;18.802;2023-04-01T07:38:47;96193.30;;;10.95;100.00
32492;BME280;20605;49.742;18.802;2023-04-01T07:41:28;96192.19;;;10.99;100.00
32492;BME280;20605;49.742;18.802;2023-04-01T07:55:15;96198.78;;;11.23;100.00
32492;BME280;20605;49.742;18.802;2023-04-01T07:58:08;96201.70;;;11.23;100.00
32492;BME280;20605;49.742;18.802;2023-04-01T08:00:49;96205.59;;;11.25;100.00
32492;BME280;20605;49.742;18.802;2023-04-01T08:09:47;96209.41;;;11.45;100.00
32492;BME280;20605;49.742;18.802;2023-04-01T08:12:26;96213.15;;;11.61;100.00
32492;BME280;20605;49.742;18.802;2023-04-01T08:15:21;96216.23;;;11.67;100.00
32492;BME280;20605;49.742;18.802;2023-04-01T08:18:17;96215.98;;;11.68;100.00
32492;BME280;20605;49.742;18.802;2023-04-01T08:21:25;96216.23;;;11.64;100.00
32492;BME280;20605;49.742;18.802;2023-04-01T08:24:07;96220.02;;;11.54;100.00
32492;BME280;20605;49.742;18.802;2023-04-01T08:26:47;96215.10;;;11.43;100.00
32492;BME280;20605;49.742;18.802;2023-04-01T08:29:20;96221.70;;;11.37;100.00
32492;BME280;20605;49.742;18.802;2023-04-01T08:32:10;96219.76;;;11.35;100.00
32492;BME280;20605;49.742;18.802;2023-04-01T08:34:51;96221.91;;;11.31;100.00
32492;BME280;20605;49.742;18.802;2023-04-01T08:37:32;96223.58;;;11.32;100.00
32492;BME280;20605;49.742;18.802;2023-04-01T08:54:54;96225.29;;;11.24;100.00
32492;BME280;20605;49.742;18.802;2023-04-01T09:01:13;96221.99;;;11.38;100.00
32492;BME280;20605;49.742;18.802;2023-04-01T09:12:36;96221.48;;;11.67;100.00
32492;BME280;20605;49.742;18.802;2023-04-01T09:23:15;96220.64;;;11.52;100.00
32492;BME280;20605;49.742;18.802;2023-04-01T09:37:42;96231.46;;;11.57;100.00
32492;BME280;20605;49.742;18.802;2023-04-01T09:49:19;96241.27;;;11.21;100.00
32492;BME280;20605;49.742;18.802;2023-04-01T09:57:48;96244.98;;;11.31;100.00
32492;BME280;20605;49.742;18.802;2023-04-01T10:04:02;96253.48;;;11.32;100.00
32492;BME280;20605;49.742;18.802;2023-04-01T10:15:53;96254.95;;;11.82;100.00
32492;BME280;20605;49.742;18.802;2023-04-01T10:18:44;96254.38;;;12.00;100.00
32492;BME280;20605;49.742;18.802;2023-04-01T10:45:23;96263.11;;;11.86;100.00
32492;BME280;20605;49.742;18.802;2023-04-01T10:50:49;96262.53;;;11.84;100.00
32492;BME280;20605;49.742;18.802;2023-04-01T11:14:52;96267.78;;;12.28;100.00
32492;BME280;20605;49.742;18.802;2023-04-01T11:25:36;96266.28;;;12.24;100.00
32492;BME280;20605;49.742;18.802;2023-04-01T11:31:44;96260.27;;;12.45;100.00
32492;BME280;20605;49.742;18.802;2023-04-01T11:34:31;96261.98;;;12.53;100.00
32492;BME280;20605;49.742;18.802;2023-04-01T11:46:15;96260.93;;;12.96;100.00
32492;BME280;20605;49.742;18.802;2023-04-01T11:48:54;96260.67;;;13.02;100.00
32492;BME280;20605;49.742;18.802;2023-04-01T11:54:19;96259.88;;;13.17;100.00
32492;BME280;20605;49.742;18.802;2023-04-01T11:56:59;96258.33;;;13.25;100.00
32492;BME280;20605;49.742;18.802;2023-04-01T11:59:37;96260.27;;;13.27;100.00
32492;BME280;20605;49.742;18.802;2023-04-01T12:02:22;96259.27;;;13.26;100.00
32492;BME280;20605;49.742;18.802;2023-04-01T12:05:19;96261.86;;;13.24;100.00
32492;BME280;20605;49.742;18.802;2023-04-01T12:14:02;96258.10;;;13.18;100.00
32492;BME280;20605;49.742;18.802;2023-04-01T12:16:29;96258.30;;;13.20;100.00
32492;BME280;20605;49.742;18.802;2023-04-01T12:19:29;96260.55;;;13.18;100.00
32492;BME280;20605;49.742;18.802;2023-04-01T12:33:25;96261.64;;;12.98;100.00
32492;BME280;20605;49.742;18.802;2023-04-01T12:47:17;96279.72;;;12.29;100.00
32492;BME280;20605;49.742;18.802;2023-04-01T12:53:01;96279.23;;;12.36;100.00
32492;BME280;20605;49.742;18.802;2023-04-01T13:16:42;96277.19;;;12.36;100.00
32492;BME280;20605;49.742;18.802;2023-04-01T13:19:23;96278.79;;;12.38;100.00
32492;BME280;20605;49.742;18.802;2023-04-01T13:21:58;96275.02;;;12.40;100.00
32492;BME280;20605;49.742;18.802;2023-04-01T13:24:40;96276.35;;;12.44;100.00
32492;BME280;20605;49.742;18.802;2023-04-01T13:27:30;96280.49;;;12.55;100.00
32492;BME280;20605;49.742;18.802;2023-04-01T13:38:08;96283.19;;;13.07;100.00
32492;BME280;20605;49.742;18.802;2023-04-01T13:43:22;96284.58;;;13.07;100.00
32492;BME280;20605;49.742;18.802;2023-04-01T13:46:40;96285.89;;;13.11;100.00
32492;BME280;20605;49.742;18.802;2023-04-01T13:49:01;96286.82;;;13.07;100.00
32492;BME280;20605;49.742;18.802;2023-04-01T14:00:22;96282.92;;;13.03;100.00
32492;BME280;20605;49.742;18.802;2023-04-01T14:11:11;96284.17;;;12.95;100.00
32492;BME280;20605;49.742;18.802;2023-04-01T14:33:26;96296.73;;;12.07;100.00
32492;BME280;20605;49.742;18.802;2023-04-01T14:36:18;96296.71;;;11.79;100.00
32492;BME280;20605;49.742;18.802;2023-04-01T14:41:48;96300.90;;;11.44;100.00
32492;BME280;20605;49.742;18.802;2023-04-01T14:44:48;96303.04;;;11.40;100.00
32492;BME280;20605;49.742;18.802;2023-04-01T14:49:48;96297.92;;;11.85;100.00
32492;BME280;20605;49.742;18.802;2023-04-01T14:52:32;96295.59;;;12.20;100.00
32492;BME280;20605;49.742;18.802;2023-04-01T14:55:19;96290.94;;;12.60;100.00
32492;BME280;20605;49.742;18.802;2023-04-01T15:01:07;96287.77;;;13.17;100.00
32492;BME280;20605;49.742;18.802;2023-04-01T15:06:45;96287.59;;;13.66;100.00
32492;BME280;20605;49.742;18.802;2023-04-01T15:09:45;96281.05;;;13.78;100.00
32492;BME280;20605;49.742;18.802;2023-04-01T15:12:30;96281.78;;;14.03;100.00
32492;BME280;20605;49.742;18.802;2023-04-01T15:17:53;96283.20;;;14.29;100.00
32492;BME280;20605;49.742;18.802;2023-04-01T15:29:02;96291.34;;;13.86;100.00
32492;BME280;20605;49.742;18.802;2023-04-01T15:31:41;96290.40;;;13.61;100.00
32492;BME280;20605;49.742;18.802;2023-04-01T15:50:26;96298.80;;;13.29;100.00
32492;BME280;20605;49.742;18.802;2023-04-01T15:53:10;96304.16;;;13.20;100.00
32492;BME280;20605;49.742;18.802;2023-04-01T15:56:16;96306.42;;;13.14;100.00
32492;BME280;20605;49.742;18.802;2023-04-01T15:59:01;96314.10;;;13.06;100.00
32492;BME280;20605;49.742;18.802;2023-04-01T16:04:30;96319.10;;;12.91;100.00
32492;BME280;20605;49.742;18.802;2023-04-01T16:07:28;96320.43;;;12.84;100.00
32492;BME280;20605;49.742;18.802;2023-04-01T16:15:32;96330.17;;;12.62;100.00
32492;BME280;20605;49.742;18.802;2023-04-01T16:18:17;96330.65;;;12.52;100.00
32492;BME280;20605;49.742;18.802;2023-04-01T16:23:30;96339.21;;;12.35;100.00
32492;BME280;20605;49.742;18.802;2023-04-01T16:26:07;96344.73;;;12.24;100.00
32492;BME280;20605;49.742;18.802;2023-04-01T16:28:57;96350.29;;;12.11;100.00
32492;BME280;20605;49.742;18.802;2023-04-01T16:37:43;96367.07;;;11.71;100.00
32492;BME280;20605;49.742;18.802;2023-04-01T16:40:20;96373.29;;;11.63;100.00
32492;BME280;20605;49.742;18.802;2023-04-01T16:43:10;96373.23;;;11.53;100.00
32492;BME280;20605;49.742;18.802;2023-04-01T16:45:57;96381.27;;;11.42;100.00
32492;BME280;20605;49.742;18.802;2023-04-01T16:48:52;96384.38;;;11.34;100.00
32492;BME280;20605;49.742;18.802;2023-04-01T16:56:55;96391.55;;;11.12;100.00
32492;BME280;20605;49.742;18.802;2023-04-01T17:02:23;96402.06;;;11.01;100.00
32492;BME280;20605;49.742;18.802;2023-04-01T17:04:57;96404.93;;;10.96;100.00
32492;BME280;20605;49.742;18.802;2023-04-01T17:08:06;96411.23;;;10.92;100.00
32492;BME280;20605;49.742;18.802;2023-04-01T17:10:57;96423.95;;;10.88;100.00
32492;BME280;20605;49.742;18.802;2023-04-01T17:13:46;96432.80;;;10.82;100.00
32492;BME280;20605;49.742;18.802;2023-04-01T17:26:49;96451.02;;;10.50;100.00
32492;BME280;20605;49.742;18.802;2023-04-01T17:34:59;96465.94;;;10.17;100.00
32492;BME280;20605;49.742;18.802;2023-04-01T17:37:45;96467.20;;;10.06;100.00
32492;BME280;20605;49.742;18.802;2023-04-01T17:40:41;96471.25;;;10.04;100.00
32492;BME280;20605;49.742;18.802;2023-04-01T17:43:14;96468.90;;;10.06;100.00
32492;BME280;20605;49.742;18.802;2023-04-01T17:45:52;96473.45;;;10.05;100.00
32492;BME280;20605;49.742;18.802;2023-04-01T17:54:15;96473.07;;;9.96;100.00
32492;BME280;20605;49.742;18.802;2023-04-01T17:59:39;96483.76;;;9.87;100.00
32492;BME280;20605;49.742;18.802;2023-04-01T18:07:32;96495.63;;;9.68;100.00
32492;BME280;20605;49.742;18.802;2023-04-01T18:10:24;96501.61;;;9.66;100.00
32492;BME280;20605;49.742;18.802;2023-04-01T18:13:00;96499.59;;;9.75;100.00
32492;BME280;20605;49.742;18.802;2023-04-01T18:15:52;96505.88;;;9.78;100.00
32492;BME280;20605;49.742;18.802;2023-04-01T18:21:27;96505.98;;;9.58;100.00
32492;BME280;20605;49.742;18.802;2023-04-01T18:23:56;96512.21;;;9.47;100.00
32492;BME280;20605;49.742;18.802;2023-04-01T18:26:28;96516.73;;;9.40;100.00
32492;BME280;20605;49.742;18.802;2023-04-01T18:29:46;96519.63;;;9.37;100.00
32492;BME280;20605;49.742;18.802;2023-04-01T18:31:48;96519.39;;;9.31;100.00
32492;BME280;20605;49.742;18.802;2023-04-01T18:37:14;96524.98;;;9.30;100.00
32492;BME280;20605;49.742;18.802;2023-04-01T18:39:51;96532.54;;;9.28;100.00
32492;BME280;20605;49.742;18.802;2023-04-01T18:42:38;96534.74;;;9.29;100.00
32492;BME280;20605;49.742;18.802;2023-04-01T18:48:11;96542.31;;;9.26;100.00
32492;BME280;20605;49.742;18.802;2023-04-01T18:50:55;96549.95;;;9.30;100.00
32492;BME280;20605;49.742;18.802;2023-04-01T18:56:33;96552.67;;;9.49;100.00
32492;BME280;20605;49.742;18.802;2023-04-01T19:01:39;96554.51;;;9.54;100.00
32492;BME280;20605;49.742;18.802;2023-04-01T19:04:15;96557.72;;;9.45;100.00
32492;BME280;20605;49.742;18.802;2023-04-01T19:06:54;96559.09;;;9.38;100.00
32492;BME280;20605;49.742;18.802;2023-04-01T19:09:52;96560.92;;;9.39;100.00
32492;BME280;20605;49.742;18.802;2023-04-01T19:12:48;96562.52;;;9.42;100.00
32492;BME280;20605;49.742;18.802;2023-04-01T19:20:51;96569.52;;;9.52;100.00
32492;BME280;20605;49.742;18.802;2023-04-01T19:26:56;96573.09;;;9.53;100.00
32492;BME280;20605;49.742;18.802;2023-04-01T19:29:37;96579.58;;;9.52;100.00
32492;BME280;20605;49.742;18.802;2023-04-01T19:37:43;96585.53;;;9.47;100.00
32492;BME280;20605;49.742;18.802;2023-04-01T19:40:16;96587.69;;;9.49;100.00
32492;BME280;20605;49.742;18.802;2023-04-01T19:42:57;96591.50;;;9.49;100.00
32492;BME280;20605;49.742;18.802;2023-04-01T19:51:24;96598.90;;;9.35;100.00
32492;BME280;20605;49.742;18.802;2023-04-01T19:56:39;96602.79;;;9.26;100.00
32492;BME280;20605;49.742;18.802;2023-04-01T20:04:50;96604.49;;;8.93;100.00
32492;BME280;20605;49.742;18.802;2023-04-01T20:07:34;96603.45;;;8.85;100.00
32492;BME280;20605;49.742;18.802;2023-04-01T20:10:15;96604.06;;;8.78;100.00
32492;BME280;20605;49.742;18.802;2023-04-01T20:12:59;96607.64;;;8.84;100.00
32492;BME280;20605;49.742;18.802;2023-04-01T20:15:35;96611.09;;;8.84;100.00
32492;BME280;20605;49.742;18.802;2023-04-01T20:18:33;96616.30;;;8.80;100.00
32492;BME280;20605;49.742;18.802;2023-04-01T20:21:51;96612.95;;;8.81;100.00
32492;BME280;20605;49.742;18.802;2023-04-01T20:26:42;96612.86;;;8.79;100.00
32492;BME280;20605;49.742;18.802;2023-04-01T20:35:30;96615.20;;;8.73;100.00
32492;BME280;20605;49.742;18.802;2023-04-01T20:41:02;96615.20;;;8.61;100.00
32492;BME280;20605;49.742;18.802;2023-04-01T20:43:52;96614.04;;;8.56;100.00
32492;BME280;20605;49.742;18.802;2023-04-01T20:46:30;96614.60;;;8.55;100.00
32492;BME280;20605;49.742;18.802;2023-04-01T20:51:37;96615.27;;;8.55;100.00
32492;BME280;20605;49.742;18.802;2023-04-01T20:59:47;96621.71;;;8.75;100.00
32492;BME280;20605;49.742;18.802;2023-04-01T21:13:52;96632.94;;;8.83;100.00
32492;BME280;20605;49.742;18.802;2023-04-01T21:24:56;96637.45;;;8.79;100.00
32492;BME280;20605;49.742;18.802;2023-04-01T21:27:58;96639.72;;;8.75;100.00
32492;BME280;20605;49.742;18.802;2023-04-01T21:30:32;96644.64;;;8.81;100.00
32492;BME280;20605;49.742;18.802;2023-04-01T21:36:14;96644.37;;;8.91;100.00
32492;BME280;20605;49.742;18.802;2023-04-01T21:41:34;96645.67;;;8.89;100.00